Time;durP1;ratioP1;P1;durP2;ratioP2;P2;SDS_P1;SDS_P2;PMS_P1;PMS_P2;Temp;Humidity;BMP_temperature;BMP_pressure;BME280_temperature;BME280_humidity;BME280_pressure;Samples;Min_cycle;Max_cycle;Signal;HPM_P1;HPM_P2
2024/01/30 00:01:53;;;;;;;;;;;;;;;;;;;;;
2024/01/30 00:04:53;;;;;;;1.10;1.00;;;;;;;3.38;55.15;103792.03;6193262;23;20860;-94
2024/01/30 00:11:15;;;;;;;0.80;0.80;;;;;;;3.30;55.69;103799.28;6106221;23;20379;-91
2024/01/30 00:13:50;;;;;;;0.90;0.90;;;;;;;3.20;56.04;103791.66;6209504;23;20374;-91
2024/01/30 00:16:40;;;;;;;1.60;0.90;;;;;;;3.21;55.73;103787.31;6188586;23;20905;-94
2024/01/30 00:22:20;;;;;;;1.05;0.80;;;;;;;3.38;55.72;103794.63;6195982;23;20370;-94
2024/01/30 00:25:14;;;;;;;1.50;0.80;;;;;;;3.29;55.80;103782.66;6197255;23;20381;-96
2024/01/30 00:33:52;;;;;;;5.22;2.08;;;;;;;3.54;55.50;103788.00;6190843;22;21820;-96
2024/01/30 00:36:31;;;;;;;0.95;0.85;;;;;;;3.58;55.22;103786.16;6201178;23;20442;-94
2024/01/30 00:39:08;;;;;;;2.40;1.40;;;;;;;3.58;55.30;103791.41;6201219;23;20371;-96
2024/01/30 00:44:45;;;;;;;0.85;0.85;;;;;;;3.51;55.39;103782.00;6219876;23;20822;-92
2024/01/30 00:47:33;;;;;;;;;;;;;;;;;;;;;
2024/01/30 00:55:40;;;;;;;1.08;1.00;;;;;;;3.58;55.22;103775.66;6252398;22;20398;-95
2024/01/30 02:40:06;;;;;;;5.47;2.20;;;;;;;3.96;54.58;103776.19;6188481;23;20392;-95
2024/01/30 02:42:45;;;;;;;;;;;;;;;;;;;;;
2024/01/30 02:50:29;;;;;;;1.67;1.57;;;;;;;3.58;54.76;103783.53;6188066;23;20442;-94
2024/01/30 02:53:15;;;;;;;;;;;;;;;;;;;;;
2024/01/30 02:55:50;;;;;;;0.40;0.40;;;;;;;3.37;55.68;103777.22;6186872;23;20751;-94
2024/01/30 02:58:19;;;;;;;0.55;0.50;;;;;;;3.60;55.03;103782.59;6160631;23;20383;-95
2024/01/30 03:00:45;;;;;;;0.93;0.63;;;;;;;3.69;54.47;103772.69;6161417;23;20776;-95
2024/01/30 03:03:13;;;;;;;0.55;0.45;;;;;;;3.78;53.91;103772.38;6178730;23;20369;-94
2024/01/30 03:05:39;;;;;;;0.47;0.47;;;;;;;3.78;54.02;103775.00;6187146;23;20357;-94
2024/01/30 03:12:06;;;;;;;;;;;;;;;;;;;;;
2024/01/30 03:14:32;;;;;;;0.45;0.40;;;;;;;3.78;53.38;103767.16;6188024;23;20431;-93
2024/01/30 03:16:58;;;;;;;0.40;0.40;;;;;;;3.78;53.63;103764.53;6161656;23;20399;-94
2024/01/30 03:19:24;;;;;;;0.50;0.43;;;;;;;3.87;53.25;103771.22;6161289;23;20858;-94
2024/01/30 03:21:51;;;;;;;0.90;0.50;;;;;;;3.89;53.03;103778.16;6160977;23;20371;-95
2024/01/30 03:24:17;;;;;;;0.70;0.70;;;;;;;3.67;53.54;103764.03;6160943;23;20383;-95
2024/01/30 03:26:44;;;;;;;0.68;0.60;;;;;;;3.39;54.07;103770.16;6158709;23;20892;-94
2024/01/30 03:29:09;;;;;;;0.70;0.70;;;;;;;3.40;54.19;103777.09;6159461;23;20396;-94
2024/01/30 03:31:35;;;;;;;1.00;1.00;;;;;;;3.47;54.00;103760.25;6158826;23;20368;-93
2024/01/30 03:34:10;;;;;;;1.30;1.10;;;;;;;3.62;53.35;103761.56;6186686;23;20357;-94
2024/01/30 03:36:38;;;;;;;0.70;0.65;;;;;;;3.53;53.66;103762.72;6179370;23;20365;-95
2024/01/30 03:39:08;;;;;;;0.80;0.80;;;;;;;3.60;53.36;103777.34;6177554;23;20432;-96
2024/01/30 03:41:43;;;;;;;0.60;0.50;;;;;;;3.42;53.75;103770.91;6161366;23;20363;-95
2024/01/30 03:44:09;;;;;;;1.08;0.68;;;;;;;3.20;54.10;103775.09;6163787;23;20395;-96
2024/01/30 03:46:44;;;;;;;0.70;0.70;;;;;;;3.12;54.25;103777.09;6163647;23;20360;-96
2024/01/30 03:49:10;;;;;;;0.52;0.52;;;;;;;3.01;54.42;103775.63;6190445;23;20753;-95
2024/01/30 03:51:36;;;;;;;0.50;0.50;;;;;;;3.09;54.63;103771.94;6130648;23;20362;-96
2024/01/30 03:54:07;;;;;;;0.80;0.80;;;;;;;3.21;54.59;103774.19;6129697;23;20761;-94
2024/01/30 03:56:51;;;;;;;;;;;;;;;;;;;;;
2024/01/30 03:59:26;;;;;;;0.40;0.40;;;;;;;3.43;53.83;103777.84;6158133;23;20920;-95
2024/01/30 04:01:53;;;;;;;1.20;0.90;;;;;;;3.27;54.09;103768.75;6130487;23;20362;-95
2024/01/30 04:04:32;;;;;;;1.77;0.73;;;;;;;3.09;54.53;103780.66;6137201;23;20365;-95
2024/01/30 04:06:58;;;;;;;0.40;0.40;;;;;;;3.03;54.80;103773.81;6141722;23;20354;-93
2024/01/30 04:09:32;;;;;;;1.42;1.08;;;;;;;3.14;54.45;103781.38;6145540;23;20381;-95
2024/01/30 04:12:11;;;;;;;0.70;0.70;;;;;;;3.15;54.62;103769.13;6148492;23;20354;-95
2024/01/30 04:14:51;;;;;;;0.65;0.65;;;;;;;3.34;54.16;103772.06;6172491;23;20373;-95
2024/01/30 18:06:35;;;;;;;2.70;2.53;;;;;;;5.39;42.34;103557.06;6223750;22;20764;-92
2024/01/30 18:09:01;;;;;;;2.17;2.08;;;;;;;5.30;42.31;103553.91;6223942;23;20373;-90
2024/01/30 18:11:27;;;;;;;1.75;1.65;;;;;;;5.20;42.55;103557.84;6221972;23;20404;-91
2024/01/30 18:14:02;;;;;;;2.28;2.17;;;;;;;5.13;42.48;103551.13;6226035;23;20357;-92
2024/01/30 18:16:28;;;;;;;0.80;0.70;;;;;;;5.04;42.04;103538.38;6225162;23;20357;-90
2024/01/30 18:18:57;;;;;;;2.20;2.10;;;;;;;5.05;42.62;103542.72;6224936;23;20747;-90
2024/01/30 18:21:36;;;;;;;2.22;2.13;;;;;;;5.11;42.36;103548.59;6224334;23;20361;-90
2024/01/30 18:24:02;;;;;;;10.05;9.13;;;;;;;5.15;42.33;103547.53;6224317;23;20357;-89
2024/01/30 18:26:28;;;;;;;13.65;12.05;;;;;;;5.08;42.30;103538.19;6221529;23;20392;-89
2024/01/30 18:29:45;;;;;;;7.07;6.00;;;;;;;5.06;42.59;103547.03;6224383;23;20419;-89
2024/01/30 19:09:52;;;;;;;2.70;2.20;;;;;;;3.42;44.11;103549.75;6260981;23;20713;-89
2024/01/30 19:43:37;;;;;;;2.67;2.58;;;;;;;3.11;43.80;103545.56;6206699;23;20388;-93
2024/01/30 19:46:08;;;;;;;1.17;1.13;;;;;;;3.12;44.09;103542.03;6185842;23;20372;-88
2024/01/30 19:48:46;;;;;;;0.52;0.52;;;;;;;3.10;43.98;103538.63;6172172;23;20368;-91
2024/01/30 19:51:22;;;;;;;0.50;0.50;;;;;;;3.09;43.99;103536.06;6170102;23;20863;-93
2024/01/30 20:00:54;;;;;;;2.17;2.08;;;;;;;3.02;44.12;103533.63;6202795;23;20371;-94
2024/01/30 20:16:22;;;;;;;0.60;0.50;;;;;;;2.60;44.50;103535.88;6250669;23;20385;-92
2024/01/30 20:18:50;;;;;;;2.10;1.00;;;;;;;2.54;44.58;103538.69;6198709;23;20381;-88
2024/01/30 20:21:16;;;;;;;0.82;0.82;;;;;;;2.39;44.91;103533.00;6223206;23;20424;-89
2024/01/30 20:23:41;;;;;;;1.27;0.82;;;;;;;2.36;44.70;103524.41;6223171;23;20415;-90
2024/01/30 20:26:10;;;;;;;0.70;0.70;;;;;;;2.41;44.79;103523.38;6220400;23;20373;-90
2024/01/30 20:28:36;;;;;;;1.70;1.10;;;;;;;2.45;44.71;103524.97;6220347;23;20362;-89
2024/01/30 20:31:01;;;;;;;0.40;0.40;;;;;;;2.46;44.55;103516.22;6221751;23;20380;-89
2024/01/30 20:33:42;;;;;;;1.70;1.30;;;;;;;2.51;44.54;103513.47;6223218;23;20364;-91
2024/01/30 20:36:08;;;;;;;1.30;1.20;;;;;;;2.35;44.54;103518.31;6199828;23;20369;-90
2024/01/30 20:38:39;;;;;;;0.95;0.95;;;;;;;2.33;44.64;103519.28;6220061;23;20422;-90
2024/01/30 20:41:08;;;;;;;0.40;0.40;;;;;;;2.34;44.85;103521.84;6221304;23;20729;-89
2024/01/30 20:43:37;;;;;;;0.60;0.60;;;;;;;2.20;44.73;103508.31;6224721;23;20479;-89
2024/01/30 20:46:05;;;;;;;0.60;0.60;;;;;;;2.09;45.07;103495.56;6222683;23;20368;-90
2024/01/30 20:48:32;;;;;;;0.70;0.70;;;;;;;2.16;45.00;103497.09;6222144;23;20353;-90
2024/01/30 20:51:00;;;;;;;0.50;0.50;;;;;;;2.25;44.90;103496.81;6221725;23;20369;-90
2024/01/30 20:53:26;;;;;;;0.50;0.50;;;;;;;2.22;44.85;103499.50;6221783;23;20859;-90
2024/01/30 20:55:52;;;;;;;0.47;0.47;;;;;;;2.22;44.85;103494.28;6222229;23;20389;-91
2024/01/30 20:58:29;;;;;;;0.70;0.70;;;;;;;2.21;44.83;103487.31;6247738;23;20692;-91
2024/01/30 21:01:03;;;;;;;0.70;0.63;;;;;;;2.07;44.97;103497.34;6221391;23;20361;-91
2024/01/30 21:03:31;;;;;;;0.43;0.43;;;;;;;2.04;45.03;103484.38;6222646;23;20411;-90
2024/01/30 21:05:58;;;;;;;0.30;0.30;;;;;;;2.06;44.96;103493.03;6220183;23;20361;-90
2024/01/30 21:08:26;;;;;;;0.30;0.30;;;;;;;1.98;44.99;103480.19;6219623;23;20631;-89
2024/01/30 21:10:52;;;;;;;1.40;0.70;;;;;;;2.04;44.83;103482.59;6216820;23;20369;-86
2024/01/30 21:13:23;;;;;;;1.10;1.00;;;;;;;2.05;44.84;103475.59;6246263;23;20341;-88
2024/01/30 21:16:02;;;;;;;0.70;0.70;;;;;;;2.09;44.73;103490.31;6237940;23;20384;-88
2024/01/30 21:18:35;;;;;;;0.32;0.32;;;;;;;1.68;45.57;103497.63;6243852;23;20523;-87
2024/01/30 21:21:01;;;;;;;1.10;0.50;;;;;;;1.41;46.15;103486.16;6242963;23;20357;-86
2024/01/30 21:23:26;;;;;;;0.43;0.43;;;;;;;1.41;45.95;103489.63;6246542;23;20351;-90
2024/01/30 21:25:57;;;;;;;0.30;0.30;;;;;;;1.32;45.92;103479.44;6244659;23;20367;-89
2024/01/30 21:28:26;;;;;;;0.47;0.47;;;;;;;1.23;46.40;103490.13;6248120;23;20369;-89
2024/01/30 21:30:57;;;;;;;0.20;0.20;;;;;;;1.10;46.45;103487.84;6244066;23;20451;-88
2024/01/30 21:33:25;;;;;;;0.80;0.80;;;;;;;1.05;46.73;103494.09;6243896;23;20424;-89
2024/01/30 21:35:56;;;;;;;0.40;0.40;;;;;;;0.98;46.96;103490.75;6247508;23;20367;-89
2024/01/30 21:38:28;;;;;;;0.50;0.50;;;;;;;0.98;46.99;103493.38;6246324;23;20418;-89
2024/01/30 21:40:55;;;;;;;0.30;0.30;;;;;;;1.16;46.51;103484.19;6246759;23;20350;-88
2024/01/30 21:43:21;;;;;;;0.22;0.22;;;;;;;1.21;46.06;103491.94;6245017;23;20361;-88
2024/01/30 21:45:50;;;;;;;0.40;0.40;;;;;;;1.03;46.72;103499.34;6248105;23;20353;-89
2024/01/30 21:48:16;;;;;;;0.30;0.30;;;;;;;0.71;47.40;103493.16;6245958;23;20360;-90
2024/01/30 21:50:42;;;;;;;0.22;0.22;;;;;;;0.70;47.25;103496.69;6249136;23;20374;-89
2024/01/30 21:53:13;;;;;;;0.20;0.20;;;;;;;0.75;47.54;103501.78;6265037;23;20730;-86
2024/01/30 21:55:38;;;;;;;0.40;0.40;;;;;;;0.69;47.17;103497.56;6251242;23;20345;-89
2024/01/30 21:58:04;;;;;;;1.20;1.20;;;;;;;0.51;47.69;103491.03;6244454;23;20364;-89
2024/01/30 22:00:34;;;;;;;0.20;0.20;;;;;;;0.38;48.04;103487.00;6245407;23;20359;-89
2024/01/30 22:03:00;;;;;;;0.40;0.40;;;;;;;0.44;48.13;103493.81;6245669;23;20361;-89
2024/01/30 22:05:28;;;;;;;0.27;0.27;;;;;;;0.45;48.10;103487.69;6248441;23;20357;-89
2024/01/30 22:07:54;;;;;;;0.30;0.30;;;;;;;0.59;47.77;103489.97;6250820;22;20368;-88
2024/01/30 22:10:22;;;;;;;0.20;0.20;;;;;;;0.76;47.32;103485.22;6249743;23;20373;-88
2024/01/30 22:12:58;;;;;;;1.20;1.00;;;;;;;0.85;47.25;103468.47;6236590;23;20384;-84
2024/01/30 22:15:26;;;;;;;0.20;0.20;;;;;;;0.98;46.60;103482.94;6205526;22;20422;-88
2024/01/30 22:17:54;;;;;;;0.10;0.10;;;;;;;1.01;46.64;103468.91;6162921;23;20362;-88
2024/01/30 22:20:36;;;;;;;;;;;;;;;;;;;;;
2024/01/30 22:23:15;;;;;;;;;;;;;;;;;;;;;
2024/01/30 22:25:41;;;;;;;0.30;0.30;;;;;;;1.26;46.30;103479.56;6163891;23;20381;-89
2024/01/30 22:28:10;;;;;;;0.10;0.10;;;;;;;1.31;45.99;103468.13;6162083;23;20385;-90
2024/01/30 22:30:38;;;;;;;0.30;0.30;;;;;;;1.27;46.17;103466.47;6155758;23;20932;-88
2024/01/30 22:33:06;;;;;;;0.28;0.28;;;;;;;1.34;46.20;103475.88;6157483;23;20358;-89
2024/01/30 22:35:35;;;;;;;0.20;0.20;;;;;;;1.33;46.00;103473.28;6158313;23;20366;-89
2024/01/30 22:38:07;;;;;;;0.60;0.55;;;;;;;1.33;45.93;103465.44;6161279;23;20354;-90
2024/01/30 22:40:34;;;;;;;0.10;0.10;;;;;;;1.30;45.85;103473.41;6156526;23;20351;-89
2024/01/30 22:42:59;;;;;;;0.20;0.20;;;;;;;1.28;45.91;103464.75;6157403;23;20428;-89
2024/01/30 22:45:25;;;;;;;0.30;0.30;;;;;;;1.21;46.06;103469.28;6156783;23;20629;-89
2024/01/30 22:47:51;;;;;;;3.03;1.00;;;;;;;1.17;46.13;103472.88;6179102;23;20362;-90
2024/01/30 22:50:17;;;;;;;0.35;0.35;;;;;;;1.21;46.18;103468.41;6180548;23;20441;-91
2024/01/30 22:52:45;;;;;;;0.60;0.60;;;;;;;0.85;46.86;103463.25;6181776;23;20381;-89
2024/01/30 22:55:11;;;;;;;1.10;1.00;;;;;;;0.42;48.10;103478.19;6182447;23;20353;-89
2024/01/30 22:57:39;;;;;;;0.10;0.10;;;;;;;0.30;48.10;103462.81;6174641;23;20394;-89
2024/01/30 23:00:14;;;;;;;1.10;0.40;;;;;;;0.26;48.21;103467.25;6166508;23;20350;-89
2024/01/30 23:02:46;;;;;;;0.10;0.10;;;;;;;0.08;48.50;103468.50;6162342;23;20354;-90
2024/01/30 23:05:16;;;;;;;0.32;0.32;;;;;;;-0.05;48.85;103465.31;6161490;23;20355;-90
2024/01/30 23:07:42;;;;;;;0.70;0.70;;;;;;;-0.22;48.89;103451.78;6160305;23;20359;-91
2024/01/30 23:10:09;;;;;;;0.30;0.30;;;;;;;-0.12;48.83;103457.66;6162456;23;20421;-90
2024/01/30 23:12:36;;;;;;;0.20;0.20;;;;;;;-0.03;48.33;103457.47;6163681;23;20366;-90
2024/01/30 23:15:02;;;;;;;0.10;0.10;;;;;;;0.01;48.19;103460.88;6158117;23;20492;-90
2024/01/30 23:17:33;;;;;;;0.30;0.30;;;;;;;-0.01;48.19;103458.28;6159625;23;20358;-90
2024/01/30 23:20:01;;;;;;;0.10;0.10;;;;;;;0.02;48.13;103457.34;6158625;23;20358;-92
2024/01/30 23:22:31;;;;;;;0.30;0.30;;;;;;;-0.07;48.40;103446.25;6156688;23;20398;-92
2024/01/30 23:24:57;;;;;;;0.60;0.30;;;;;;;0.05;48.31;103457.28;6159830;23;20430;-91
2024/01/30 23:27:25;;;;;;;0.20;0.20;;;;;;;0.21;47.73;103461.28;6161782;23;20706;-91
2024/01/30 23:29:53;;;;;;;0.40;0.30;;;;;;;0.16;47.82;103455.28;6158613;23;20370;-92
2024/01/30 23:32:19;;;;;;;0.20;0.20;;;;;;;0.14;47.74;103459.69;6157856;23;20754;-89
2024/01/30 23:34:45;;;;;;;0.30;0.30;;;;;;;-0.12;48.02;103444.63;6155462;23;20373;-90
2024/01/30 23:37:11;;;;;;;2.10;0.90;;;;;;;-0.12;48.07;103432.44;6157650;23;20429;-90
2024/01/30 23:39:39;;;;;;;0.20;0.20;;;;;;;0.04;48.07;103443.41;6156426;23;20373;-91
2024/01/30 23:42:08;;;;;;;0.40;0.40;;;;;;;0.00;47.91;103439.16;6157085;23;20849;-90
2024/01/30 23:44:39;;;;;;;0.40;0.40;;;;;;;-0.05;48.05;103447.06;6154713;23;20366;-90
2024/01/30 23:47:07;;;;;;;0.30;0.30;;;;;;;-0.14;48.15;103429.03;6156842;23;20469;-91
2024/01/30 23:49:35;;;;;;;0.20;0.20;;;;;;;0.01;48.01;103434.78;6155595;23;20889;-91
2024/01/30 23:52:04;;;;;;;0.20;0.20;;;;;;;0.14;47.98;103426.63;6154998;23;20365;-92
2024/01/30 23:54:30;;;;;;;0.32;0.32;;;;;;;0.24;47.56;103421.22;6155946;23;20366;-91
2024/01/30 23:56:55;;;;;;;0.10;0.10;;;;;;;0.31;47.31;103422.81;6168554;23;20366;-92
2024/01/30 23:59:21;;;;;;;0.20;0.20;;;;;;;0.29;47.11;103422.84;6177295;23;20358;-92
